Kezdőlap
METAR-TAF:

METAR-TAF

Repülőterek :

Québec, Québec, Kanada

földrajzi szélesség: 46-48N, földrajzi hosszúság: 071-23W, magasság: 70 m

Jelenlegi meteorológiai megfigyelések

A jelentés 59 perccel ezelõtt készült, 03:00 UTC
Északi szél 4 kt
Hőmérséklet 4°C
Páratartalom 35%
Légköri nyomás 1028 hPa
Látótávolság: 24.1 km
Derült ég

METAR: CYQB 230300Z 36004KT 15SM SKC 04/M10 A3037 RMK SLP287

Idő: 23:59 (03:59 UTC)

Előrejelzés

A jelentés 4 órával és 20 perccel ezelõtt készült, 23:39 UTC
Az előrejelzés 23-én 00 óra UTC és 23-én 24 óra UTC között érvényes
Nyugati szél 5 kt
Látótávolság: 10 km
Kevés felhő 25000 lábon
23-én 00 óra UTC és 23-én 02 óra UTC között fokozatosan kialakuló
Különbözõ irányokból fújó szél 3 kt
23-én 1500 órától UTC szerint
Délnyugati szél 10 kt
Látótávolság: 10 km
Szórványos felhőzet 18000 lábon

TAF: CYQB 222339Z 2300/2324 28005KT P6SM FEW250 BECMG 2300/2302 VRB03KT FM231500 23010KT P6SM SCT180 RMK NXT FCST BY 230600Z

Meteorológiai megfigyelések és előrejelzések több, mint 4000 repülőtéren (METAR és TAF jelentéseket).

A térképen piros és sárga pontok jelzik az elérhető meteorológiai állomásokat.

Mozgassa az egeret a pont fölött, hogy megjelenjen az állomás neve.

Azután kattintson az időjárási megfigyelések és előrejelzések megtekintéséhez.

A térkép megváltoztatása: kattintson a fekete keresztel jelölt zöld gombra ráközelítéshez, a vonallal jelölt zöld gombra távolításhoz, vagy a zöld nyilakra a szomszédos térképek eléréséhez.


METAR-TAF: